Blue Oak Ranch Reserve, California Weather observations

Data are for 10 minute period ending at time listed.
 Day   Time   Solar   Ave.   Ave.  Ave.  Vector  Max.   Baro.   Total    
  of    of     Rad.   Air    Rel.  Wind   Wind   Wind  Press.  Precip.   
Year   Day            Temp.  Hum.  Speed  Dir.   Gust                    
2017   (PST)  Kw/m2    F      %     mph   deg.    mph    mb.     in.     
-------------------------------------------------------------------------
  54   22:30   0.00   32.5    93    0.8    42     2.9   953.6    0.00 
  54   22:40   0.00   32.6    93    1.1    66     2.5   953.5    0.00 
  54   22:50   0.00   31.8    93    0.6   298     1.8   953.5    0.00 
  54   23:00   0.00   31.3    94    0.2   312     1.2   953.4    0.00 
  54   23:10   0.00   31.2    94    0.2    10     1.3   953.4    0.00 
  54   23:20   0.00   31.3    95    0.2    20     1.5   953.3    0.00 
  54   23:30   0.00   31.1    95    0.8   294     2.0   953.3    0.00 
  54   23:40   0.00   31.0    95    0.0   313     0.9   953.3    0.00 
  54   23:50   0.00   30.9    95    0.2   271     1.5   953.4    0.00 
  55    0:00   0.00   31.0    95    0.0     3     0.9   953.4    0.00 
  55    0:10   0.00   30.4    95    0.3   314     1.5   953.3    0.00 
  55    0:20   0.00   30.0    95    0.4   309     1.6   953.4    0.00 
  55    0:30   0.00   30.0    95    0.5   304     1.2   953.6    0.00 
  55    0:40   0.00   29.7    95    1.1    58     2.4   953.7    0.00 
  55    0:50   0.00   29.4    95    0.8   291     1.6   953.8    0.00 
  55    1:00   0.00   29.3    95    0.2    42     1.2   953.8    0.00 
  55    1:10   0.00   29.2    95    0.0     0     0.0   953.9    0.00 
  55    1:20   0.00   29.2    95    0.0     0     0.0   953.8    0.00 
  55    1:30   0.00   29.1    95    0.3   299     1.2   953.7    0.00 
  55    1:40   0.00   28.9    95    0.4   287     2.2   953.6    0.00 
  55    1:50   0.00   29.0    96    0.7   291     1.7   953.7    0.00 
  55    2:00   0.00   29.1    96    1.2   295     1.9   953.7    0.00 
  55    2:10   0.00   29.0    96    0.2    15     0.9   953.7    0.00 
  55    2:20   0.00   28.8    96    0.0     0     0.0   953.7    0.00 
  55    2:30   0.00   28.9    96    0.1   294     1.4   953.6    0.00 
  55    2:40   0.00   28.9    96    0.9   301     1.9   953.6    0.00 
  55    2:50   0.00   28.9    96    1.9    62     3.1   953.4    0.00 
  55    3:00   0.00   29.1    96    1.0    26     2.9   953.3    0.00 
  55    3:10   0.00   28.9    96    0.3   312     1.4   953.1    0.00 
  55    3:20   0.00   29.0    96    0.2   279     1.5   952.9    0.00 
  55    3:30   0.00   29.4    96    0.1   291     0.9   952.7    0.00 
  55    3:40   0.00   29.4    96    1.2   316     3.2   952.5    0.00 
  55    3:50   0.00   29.3    96    1.5   294     2.4   952.6    0.00 
  55    4:00   0.00   29.5    96    0.5   312     1.6   952.5    0.00 
  55    4:10   0.00   29.5    96    0.9   280     2.3   952.5    0.00 
  55    4:20   0.00   29.4    96    0.3   315     1.7   952.4    0.00 
  55    4:30   0.00   29.1    96    1.7   291     2.5   952.3    0.00 
  55    4:40   0.00   28.6    96    1.0   287     2.9   952.4    0.00 
  55    4:50   0.00   28.4    96    2.0   300     3.2   952.6    0.00 
  55    5:00   0.00   28.3    96    1.8   307     2.8   952.8    0.00 
  55    5:10   0.00   28.5    96    0.4    58     1.5   952.9    0.00 
  55    5:20   0.00   29.1    96    1.1    46     2.0   953.0    0.00 
  55    5:30   0.00   28.7    95    0.8   299     1.8   953.0    0.00 
  55    5:40   0.00   28.0    95    1.4   298     2.0   953.0    0.00 
  55    5:50   0.00   28.0    96    0.1   294     1.1   953.1    0.00 
  55    6:00   0.00   28.0    96    0.0     0     0.0   953.2    0.00 
  55    6:10   0.00   28.2    96    0.0     0     0.0   953.2    0.00 
  55    6:20   0.00   28.1    96    0.0     0     0.0   953.2    0.00 
  55    6:30   0.00   28.2    96    0.6   293     1.7   953.1    0.00 
  55    6:40   0.00   27.7    95    1.5   296     2.5   953.3    0.00 
  55    6:50   0.01   27.8    96    0.0    50     0.6   953.3    0.00 
  55    7:00   0.01   28.4    96    0.0     0     0.0   953.3    0.00 
  55    7:10   0.02   28.6    96    0.0     0     0.0   953.3    0.00 
  55    7:20   0.03   28.8    96    0.0     0     0.0   953.5    0.00 
  55    7:30   0.03   29.1    96    0.2   305     0.9   953.5    0.00 
  55    7:40   0.06   29.6    96    0.0   305     0.2   953.6    0.00 
  55    7:50   0.05   30.5    95    0.9   302     1.5   953.8    0.00 
  55    8:00   0.06   30.5    94    0.0   303     0.7   954.0    0.00 
  55    8:10   0.19   33.5    94    0.1    59     1.3   954.2    0.00 
  55    8:20   0.24   38.5    87    0.4    76     2.0   954.4    0.00 
  55    8:30   0.29   41.7    79    0.7    82     1.8   954.7    0.00 
  55    8:40   0.33   42.0    77    0.9   148     2.2   955.0    0.00 
  55    8:50   0.35   42.9    73    1.2   124     2.2   955.1    0.00 
  55    9:00   0.39   42.7    73    1.5    99     3.1   955.2    0.00 
  55    9:10   0.43   43.0    73    1.5    89     4.0   955.3    0.00 
  55    9:20   0.38   43.3    71    1.5   127     3.6   955.4    0.00 
  55    9:30   0.18   42.3    70    2.6   240     5.3   955.3    0.00 
  55    9:40   0.29   41.0    66    2.5   271     4.1   955.3    0.00 
  55    9:50   0.52   43.6    63    2.9   228     4.8   955.3    0.00 
  55   10:00   0.57   45.5    56    1.8   251     5.6   955.3    0.00 
  55   10:10   0.56   45.9    54    3.0   209     6.8   955.1    0.00 
  55   10:20   0.60   45.2    58    3.9   239     6.4   955.1    0.00 
  55   10:30   0.62   45.7    52    4.0   261     7.8   955.1    0.00 
  55   10:40   0.64   46.4    47    4.5   230     9.5   955.1    0.00 
  55   10:50   0.67   45.8    47    4.8   251     8.1   955.1    0.00 
  55   11:00   0.68   46.4    48    4.8   267     9.1   955.2    0.00 
  55   11:10   0.67   46.2    45    5.0   273     9.1   955.2    0.00 
  55   11:20   0.70   46.1    46    4.2   273     7.7   955.3    0.00 
  55   11:30   0.71   47.2    40    5.9   234     9.3   955.3    0.00 
  55   11:40   0.72   46.7    42    5.9   256    10.1   955.2    0.00 
  55   11:50   0.73   47.3    46    4.3   231     8.3   955.1    0.00 
  55   12:00   0.74   48.2    45    4.9   264     8.2   954.9    0.00 
  55   12:10   0.74   46.9    42    6.3   295    15.6   954.8    0.00 
  55   12:20   0.74   47.1    38    4.2   247     9.7   954.7    0.00 
  55   12:30   0.73   48.9    34    5.1   260    13.1   954.6    0.00 
  55   12:40   0.73   47.9    39    7.0   249    12.6   954.5    0.00 
  55   12:50   0.74   47.8    41    4.8   221     9.6   954.4    0.00 
  55   13:00   0.74   47.3    36    4.7   220     9.9   954.4    0.00 
  55   13:10   0.70   47.8    38    4.7   234    10.6   954.2    0.00 
  55   13:20   0.69   48.3    38    6.3   246    10.8   954.0    0.00 
  55   13:30   0.74   49.2    40    4.1   243     8.6   953.9    0.00 
  55   13:40   0.72   48.5    43    3.5   272     7.6   953.8    0.00 
  55   13:50   0.32   46.6    46    7.0   290    10.4   953.7    0.00 
  55   14:00   0.53   47.1    48    4.8   301     8.9   953.6    0.00 
  55   14:10   0.20   46.2    48    4.8   310     8.3   953.6    0.00 
  55   14:20   0.25   45.6    46    2.2   290     5.8   953.7    0.00 
  55   14:30   0.28   47.0    46    2.9   267     7.7   953.7    0.00 
  55   14:40   0.61   47.6    52    6.2   288    13.9   953.8    0.00 
  55   14:50   0.68   49.0    49    7.0   268    12.9   953.7    0.00 
  55   15:00   0.62   49.4    46    5.2   263    10.7   953.5    0.00 
  55   15:10   0.56   49.1    45    6.1   234    11.0   953.4    0.00 
  55   15:20   0.53   49.7    45    5.5   252    11.0   953.3    0.00 
  55   15:30   0.52   49.3    47    3.3   287     8.1   953.4    0.00 
  55   15:40   0.46   49.7    46    5.6   264    12.7   953.3    0.00 
  55   15:50   0.42   49.0    47    8.0   276    12.3   953.3    0.00 
  55   16:00   0.38   48.6    47    7.5   284    11.3   953.3    0.00 
  55   16:10   0.34   47.9    47    6.2   287    11.0   953.3    0.00 
  55   16:20   0.30   47.7    47    6.4   284    10.6   953.2    0.00 
  55   16:30   0.27   47.4    47    7.9   288    10.9   953.1    0.00 
  55   16:40   0.23   47.0    47    6.8   285    10.4   953.1    0.00 
  55   16:50   0.20   46.3    47    7.3   294    10.7   953.1    0.00 
  55   17:00   0.17   46.3    47    6.2   285     9.9   953.2    0.00 
  55   17:10   0.14   46.0    46    6.8   287    10.4   953.3    0.00 
  55   17:20   0.10   45.0    46    6.9   288     9.6   953.4    0.00 
  55   17:30   0.07   44.2    47    6.1   296     8.9   953.5    0.00 
  55   17:40   0.04   43.4    48    6.4   295     9.6   953.6    0.00 
  55   17:50   0.02   42.4    51    7.0   305     9.8   953.6    0.00 
  55   18:00   0.01   41.8    53    5.4   315     9.5   953.5    0.00 
  55   18:10   0.01   40.8    57    3.7   322     6.9   953.5    0.00 
  55   18:20   0.00   40.4    59    4.3   327     8.7   953.5    0.00 
  55   18:30   0.00   40.1    62    3.2   323     7.8   953.7    0.00 
  55   18:40   0.00   39.3    65    2.0   322     4.3   953.7    0.00 
  55   18:50   0.00   37.2    72    0.8    77     1.8   953.7    0.00 
  55   19:00   0.00   35.7    77    0.3    46     1.1   953.8    0.00 
  55   19:10   0.00   34.9    79    0.6    31     1.5   953.8    0.00 
  55   19:20   0.00   34.4    80    0.6    72     1.7   953.7    0.00 
  55   19:30   0.00   33.9    83    0.6   337     2.2   953.7    0.00 
  55   19:40   0.00   33.6    83    0.7    62     1.9   953.6    0.00 
  55   19:50   0.00   33.3    84    0.3    19     1.1   953.7    0.00 
  55   20:00   0.00   33.0    84    0.2   148     1.2   953.8    0.00 
  55   20:10   0.00   32.8    86    1.0    50     2.3   953.8    0.00 
  55   20:20   0.00   32.6    86    1.1    54     1.9   953.8    0.00 
  55   20:30   0.00   32.5    87    0.6    31     1.8   953.8    0.00 
  55   20:40   0.00   32.4    87    0.7   302     1.8   953.7    0.00 
  55   20:50   0.00   32.1    87    0.1   345     0.9   953.8    0.00 
  55   21:00   0.00   32.3    88    0.1   311     0.8   953.8    0.00 
  55   21:10   0.00   32.0    88    0.1   312     0.9   953.8    0.00 
  55   21:20   0.00   31.9    90    0.0     0     0.0   953.8    0.00 
  55   21:30   0.00   31.5    90    0.1   296     1.5   953.7    0.00 
  55   21:40   0.00   31.0    90    1.5   295     2.9   953.7    0.00 
  55   21:50   0.00   30.7    92    0.0     0     0.0   953.8    0.00 
  55   22:00   0.00   31.2    93    0.8    55     2.1   953.8    0.00 
  55   22:10   0.00   31.1    93    0.6   290     1.4   953.7    0.00 
  55   22:20   0.00   31.1    93    0.6    41     2.3   953.7    0.00 

Return to Blue Oak Ranch Reserve graphs page.


Western Regional Climate Center,wrcc@dri.edu